Time;durP1;ratioP1;P1;durP2;ratioP2;P2;SDS_P1;SDS_P2;PMS_P1;PMS_P2;Temp;Humidity;BMP_temperature;BMP_pressure;BME280_temperature;BME280_humidity;BME280_pressure;Samples;Min_cycle;Max_cycle;Signal;HPM_P1;HPM_P2
2023/08/26 00:00:56;;;;;;;7.47;5.00;;;;;;;19.46;83.70;98165.06;4888964;29;20097;-84
2023/08/26 00:03:40;;;;;;;7.55;5.00;;;;;;;19.46;83.67;98163.22;4881888;29;20097;-84
2023/08/26 00:06:24;;;;;;;11.10;5.00;;;;;;;19.55;83.73;98169.53;4887078;29;20048;-83
2023/08/26 00:09:08;;;;;;;10.23;5.00;;;;;;;19.45;83.61;98161.59;4889658;29;20099;-84
2023/08/26 00:11:53;;;;;;;10.25;4.35;;;;;;;19.41;83.38;98160.56;4889978;29;20590;-82
2023/08/26 00:14:37;;;;;;;11.15;4.57;;;;;;;19.46;83.81;98159.75;4884351;29;20044;-83
2023/08/26 00:17:21;;;;;;;8.88;5.15;;;;;;;19.21;84.37;98159.59;4884468;29;20124;-81
2023/08/26 00:20:08;;;;;;;6.53;4.50;;;;;;;19.33;83.89;98156.63;4882578;29;20180;-81
2023/08/26 00:22:52;;;;;;;7.95;4.78;;;;;;;19.58;83.09;98151.44;4885501;29;20044;-81
2023/08/26 00:25:36;;;;;;;5.88;4.22;;;;;;;19.29;83.57;98154.78;4884510;29;20052;-82
2023/08/26 00:28:20;;;;;;;8.88;4.82;;;;;;;19.27;84.30;98142.56;4886039;29;20083;-82
2023/08/26 00:31:04;;;;;;;9.43;4.95;;;;;;;18.96;84.28;98136.53;4884046;29;20127;-82
2023/08/26 00:33:48;;;;;;;9.15;5.07;;;;;;;19.05;84.06;98139.44;4883534;29;20563;-83
2023/08/26 00:36:32;;;;;;;11.82;5.35;;;;;;;18.95;84.10;98142.91;4884887;29;20554;-82
2023/08/26 00:39:16;;;;;;;8.88;4.53;;;;;;;18.84;84.63;98144.81;4887591;29;20047;-82
2023/08/26 00:42:00;;;;;;;8.38;5.53;;;;;;;18.77;84.82;98139.00;4885891;29;20096;-82
2023/08/26 00:44:44;;;;;;;8.25;4.70;;;;;;;18.71;84.96;98151.50;4885683;29;20411;-83
2023/08/26 00:47:28;;;;;;;10.23;5.63;;;;;;;18.52;85.91;98143.31;4885686;29;20660;-82
2023/08/26 00:50:12;;;;;;;12.25;7.10;;;;;;;18.62;86.21;98145.94;4888964;29;20105;-83
2023/08/26 00:52:56;;;;;;;14.50;10.30;;;;;;;18.40;87.70;98146.25;4885592;29;20100;-82
2023/08/26 00:55:40;;;;;;;16.02;11.20;;;;;;;19.10;86.24;98147.44;4888341;29;20399;-82
2023/08/26 00:58:25;;;;;;;15.98;11.57;;;;;;;19.63;85.05;98143.41;4884323;29;20044;-83
2023/08/26 01:01:10;;;;;;;16.98;13.00;;;;;;;19.79;84.10;98126.25;4890076;29;20059;-82
2023/08/26 01:03:54;;;;;;;21.05;12.55;;;;;;;19.92;83.95;98134.72;4884013;29;20051;-83
2023/08/26 01:06:38;;;;;;;14.45;11.68;;;;;;;19.59;84.73;98134.38;4886585;29;20095;-82
2023/08/26 01:09:23;;;;;;;17.35;11.80;;;;;;;19.37;84.89;98135.59;4880519;29;20388;-83
2023/08/26 01:12:33;;;;;;;15.80;11.10;;;;;;;19.24;85.74;98137.75;4885723;29;20124;-83
2023/08/26 01:15:18;;;;;;;13.95;9.57;;;;;;;19.42;85.19;98140.88;4887258;29;20048;-83
2023/08/26 01:18:06;;;;;;;12.93;8.13;;;;;;;19.78;84.10;98127.34;4887385;29;20047;-83
2023/08/26 01:20:51;;;;;;;11.43;6.80;;;;;;;19.42;84.78;98138.22;4889934;29;20104;-83
2023/08/26 01:23:43;;;;;;;10.80;6.68;;;;;;;19.75;83.88;98141.22;4887636;29;20391;-82
2023/08/26 01:26:27;;;;;;;10.98;6.00;;;;;;;19.72;83.32;98125.78;4886123;29;20404;-83
2023/08/26 01:29:11;;;;;;;8.43;6.72;;;;;;;19.23;84.58;98130.84;4887384;29;20047;-82
2023/08/26 01:32:18;;;;;;;10.38;7.38;;;;;;;19.23;84.77;98132.72;4883658;29;20093;-83
2023/08/26 01:35:05;;;;;;;10.73;7.53;;;;;;;19.04;85.24;98132.53;4890922;29;20147;-82
2023/08/26 01:37:51;;;;;;;9.60;6.93;;;;;;;19.22;84.66;98139.91;4886903;29;20042;-82
2023/08/26 01:40:38;;;;;;;11.32;7.45;;;;;;;19.30;84.35;98140.41;4886238;29;20775;-82
2023/08/26 01:43:24;;;;;;;13.43;8.27;;;;;;;19.37;83.89;98136.38;4886412;29;20055;-82
2023/08/26 01:46:08;;;;;;;11.85;8.35;;;;;;;19.78;82.37;98129.22;4888833;29;20395;-82
2023/08/26 01:48:52;;;;;;;13.77;9.25;;;;;;;19.44;82.60;98137.94;4893507;29;20069;-83
2023/08/26 01:51:36;;;;;;;14.52;9.65;;;;;;;19.29;83.66;98139.63;4887767;29;20042;-83
2023/08/26 01:54:20;;;;;;;20.90;15.52;;;;;;;19.48;82.89;98139.78;4885308;29;20068;-84
2023/08/26 01:57:04;;;;;;;20.00;13.75;;;;;;;19.25;83.62;98134.03;4889834;29;20051;-83
2023/08/26 01:59:48;;;;;;;21.60;14.57;;;;;;;19.08;84.66;98131.72;4884549;29;20173;-83
2023/08/26 02:02:32;;;;;;;25.20;16.70;;;;;;;19.72;82.99;98131.13;4889856;29;20088;-82
2023/08/26 02:05:15;;;;;;;27.20;18.52;;;;;;;19.53;83.09;98134.44;4887000;29;20111;-82
2023/08/26 02:07:59;;;;;;;26.85;18.73;;;;;;;19.52;83.14;98122.19;4889792;29;20084;-82
2023/08/26 02:10:43;;;;;;;29.35;19.10;;;;;;;19.19;83.55;98129.03;4886877;29;20052;-82
2023/08/26 02:13:27;;;;;;;30.75;19.67;;;;;;;19.27;83.63;98129.25;4887918;29;20043;-82
2023/08/26 02:16:11;;;;;;;29.13;18.65;;;;;;;19.40;83.20;98119.06;4889883;29;20040;-83
2023/08/26 02:18:55;;;;;;;30.80;19.25;;;;;;;19.45;83.13;98132.34;4886344;29;20408;-84
2023/08/26 02:21:39;;;;;;;31.33;18.52;;;;;;;19.23;83.56;98122.09;4887583;29;20053;-84
2023/08/26 02:24:23;;;;;;;28.48;18.27;;;;;;;19.23;83.61;98124.75;4882416;29;20087;-84
2023/08/26 02:27:07;;;;;;;28.13;19.17;;;;;;;19.63;82.37;98117.59;4890577;29;20065;-83
2023/08/26 02:29:51;;;;;;;33.78;19.15;;;;;;;19.47;82.79;98108.13;4884656;29;20502;-83
2023/08/26 02:32:35;;;;;;;29.77;18.73;;;;;;;19.53;82.02;98112.31;4885625;29;20040;-82
2023/08/26 02:35:19;;;;;;;26.20;16.05;;;;;;;19.67;81.67;98123.16;4888430;29;20113;-83
2023/08/26 02:38:03;;;;;;;28.63;16.73;;;;;;;19.54;81.75;98121.91;4887545;29;20632;-82
2023/08/26 02:40:54;;;;;;;24.05;14.10;;;;;;;19.49;82.05;98113.97;4890586;29;20110;-82
2023/08/26 02:43:38;;;;;;;23.23;15.07;;;;;;;19.65;81.12;98114.63;4888964;29;20108;-83
2023/08/26 02:46:22;;;;;;;21.13;13.10;;;;;;;19.59;81.13;98121.88;4889508;29;20051;-82
2023/08/26 02:49:06;;;;;;;15.60;10.70;;;;;;;19.47;80.99;98108.94;4883976;29;20064;-82
2023/08/26 02:51:50;;;;;;;14.82;9.15;;;;;;;19.42;80.70;98111.59;4886230;29;20044;-82
2023/08/26 02:54:34;;;;;;;12.88;7.70;;;;;;;19.16;81.15;98103.78;4883767;29;20124;-82
2023/08/26 02:57:19;;;;;;;10.32;6.50;;;;;;;19.63;79.87;98119.44;4889343;29;20111;-83
2023/08/26 03:00:04;;;;;;;9.60;6.95;;;;;;;19.49;78.79;98106.78;4888898;29;20059;-82
2023/08/26 03:02:48;;;;;;;10.48;5.70;;;;;;;19.64;79.04;98105.06;4882015;29;20056;-82
2023/08/26 03:05:34;;;;;;;7.03;5.57;;;;;;;19.72;78.93;98103.69;4891112;29;20121;-82
2023/08/26 03:08:18;;;;;;;7.75;5.28;;;;;;;19.70;78.66;98103.97;4886979;29;20435;-82
2023/08/26 03:11:04;;;;;;;7.47;4.88;;;;;;;19.38;79.23;98099.91;4886156;29;20052;-83
2023/08/26 03:13:51;;;;;;;9.43;4.65;;;;;;;19.46;79.44;98096.69;4887426;29;20517;-82
2023/08/26 03:16:35;;;;;;;8.93;5.30;;;;;;;19.53;79.22;98104.34;4889068;29;20124;-82
2023/08/26 03:19:21;;;;;;;8.02;5.10;;;;;;;19.55;79.81;98092.34;4885071;29;20047;-82
2023/08/26 03:22:05;;;;;;;8.80;5.35;;;;;;;19.61;79.19;98092.31;4890172;29;20047;-82
2023/08/26 03:24:49;;;;;;;7.20;5.60;;;;;;;19.67;78.86;98086.69;4881076;29;20109;-82
2023/08/26 03:27:33;;;;;;;8.15;5.18;;;;;;;19.74;78.18;98070.41;4887524;29;20630;-82
2023/08/26 03:30:17;;;;;;;6.80;5.38;;;;;;;19.63;78.46;98077.66;4888301;29;20048;-81
2023/08/26 03:33:02;;;;;;;6.75;5.30;;;;;;;19.54;78.69;98077.47;4887328;29;20515;-82
2023/08/26 03:35:46;;;;;;;8.10;5.57;;;;;;;19.57;78.58;98080.63;4886545;29;20066;-81
2023/08/26 03:38:30;;;;;;;10.00;6.20;;;;;;;19.47;78.92;98073.53;4888199;29;20052;-81
2023/08/26 03:41:14;;;;;;;8.52;5.70;;;;;;;19.49;79.14;98085.50;4884279;29;20040;-81
2023/08/26 03:43:58;;;;;;;9.43;6.33;;;;;;;19.62;78.33;98085.91;4882445;29;20051;-81
2023/08/26 03:46:43;;;;;;;10.38;6.68;;;;;;;19.36;79.14;98075.47;4885181;29;20088;-81
2023/08/26 03:49:27;;;;;;;9.55;6.82;;;;;;;19.09;80.15;98068.72;4886887;29;20096;-81
2023/08/26 03:52:11;;;;;;;8.48;6.93;;;;;;;18.89;81.08;98078.34;4886840;29;20055;-82
2023/08/26 03:54:55;;;;;;;11.45;7.45;;;;;;;19.39;79.99;98082.88;4883964;29;20048;-83
2023/08/26 03:57:39;;;;;;;;;;;;;;;19.15;80.43;98080.09;4890471;29;20060;-83
2023/08/26 04:00:23;;;;;;;;;;;;;;;19.21;79.88;98077.13;4882958;29;19923;-83
2023/08/26 04:03:10;;;;;;;10.30;7.72;;;;;;;19.11;79.85;98070.00;4889331;29;20038;-84
2023/08/26 04:06:02;;;;;;;11.43;8.32;;;;;;;19.04;80.27;98080.16;4885121;29;20051;-83
2023/08/26 04:08:47;;;;;;;11.57;7.78;;;;;;;19.00;80.34;98087.09;4886781;29;20051;-83
2023/08/26 04:11:30;;;;;;;8.75;7.03;;;;;;;18.97;80.29;98080.44;4880250;29;20060;-83
2023/08/26 04:14:14;;;;;;;10.45;6.93;;;;;;;19.31;79.92;98083.47;4888507;29;20052;-84
2023/08/26 04:16:58;;;;;;;10.55;8.13;;;;;;;18.96;80.27;98078.03;4889431;29;20052;-84
2023/08/26 04:19:42;;;;;;;9.32;7.20;;;;;;;19.39;79.88;98069.56;4882414;29;20060;-83
2023/08/26 04:22:27;;;;;;;;;;;;;;;19.20;80.21;98078.19;4888271;29;20067;-82
2023/08/26 04:25:11;;;;;;;9.88;6.90;;;;;;;18.93;80.75;98066.09;4885354;29;19927;-83
2023/08/26 04:27:55;;;;;;;10.18;7.38;;;;;;;19.34;80.26;98078.38;4883079;29;20047;-83
2023/08/26 04:30:40;;;;;;;10.38;7.30;;;;;;;19.14;80.72;98079.31;4885703;29;20073;-83
2023/08/26 04:33:26;;;;;;;13.95;8.63;;;;;;;19.01;80.74;98082.56;4883366;29;20049;-82
2023/08/26 04:36:09;;;;;;;8.80;7.60;;;;;;;19.02;80.96;98079.66;4883558;29;20130;-83
2023/08/26 04:38:53;;;;;;;11.50;6.82;;;;;;;19.04;80.66;98071.38;4887870;29;20052;-83
2023/08/26 04:41:40;;;;;;;12.35;8.15;;;;;;;18.95;81.09;98076.44;4883196;29;20052;-82
2023/08/26 04:44:24;;;;;;;9.88;7.32;;;;;;;18.94;81.37;98075.66;4883316;29;20052;-83
2023/08/26 04:47:08;;;;;;;13.38;8.93;;;;;;;19.02;81.08;98076.97;4889033;29;20092;-82
2023/08/26 04:49:52;;;;;;;13.10;8.70;;;;;;;18.83;81.50;98084.72;4890646;29;20582;-82
2023/08/26 04:52:38;;;;;;;10.68;8.00;;;;;;;18.88;81.39;98084.72;4889929;29;20540;-82
2023/08/26 04:55:22;;;;;;;12.77;9.43;;;;;;;18.96;81.35;98088.66;4892058;29;20120;-82
2023/08/26 04:58:09;;;;;;;14.23;10.02;;;;;;;18.93;81.58;98084.69;4890405;29;20071;-82
2023/08/26 05:00:53;;;;;;;14.23;10.48;;;;;;;18.82;82.20;98093.78;4889469;29;20107;-82
2023/08/26 05:03:37;;;;;;;16.10;10.73;;;;;;;19.00;81.70;98088.94;4888757;29;20104;-83
2023/08/26 05:06:21;;;;;;;12.63;10.20;;;;;;;18.83;82.20;98074.09;4887333;29;20473;-83
2023/08/26 05:09:05;;;;;;;12.63;10.02;;;;;;;19.03;81.56;98083.88;4890764;29;20039;-83
2023/08/26 05:11:48;;;;;;;18.00;11.27;;;;;;;18.92;81.80;98083.13;4887260;29;20095;-83
2023/08/26 05:14:32;;;;;;;15.95;11.88;;;;;;;18.90;82.00;98082.59;4885393;29;20060;-82
2023/08/26 05:17:16;;;;;;;19.85;11.82;;;;;;;19.01;82.13;98087.88;4888129;29;20047;-82
2023/08/26 05:20:00;;;;;;;19.05;11.60;;;;;;;19.09;82.09;98089.97;4890920;29;20060;-83
2023/08/26 05:22:44;;;;;;;18.73;12.57;;;;;;;19.07;82.38;98084.16;4893113;29;20116;-83
2023/08/26 05:25:28;;;;;;;17.10;12.30;;;;;;;18.88;82.88;98086.59;4891354;29;20084;-83
2023/08/26 05:28:14;;;;;;;19.05;12.68;;;;;;;19.00;82.95;98088.94;4889861;29;20522;-83
2023/08/26 05:30:59;;;;;;;18.70;14.27;;;;;;;18.90;83.07;98085.25;4888783;29;20067;-83
2023/08/26 05:33:44;;;;;;;18.45;14.40;;;;;;;19.33;82.33;98086.66;4886902;29;20052;-85
2023/08/26 05:36:28;;;;;;;21.25;15.57;;;;;;;19.43;82.13;98081.25;4888468;29;20179;-84
2023/08/26 05:39:12;;;;;;;20.50;15.07;;;;;;;19.35;82.58;98087.16;4884616;29;20052;-84
2023/08/26 05:41:56;;;;;;;19.83;14.80;;;;;;;19.52;82.54;98084.94;4890982;29;20108;-86
2023/08/26 05:44:40;;;;;;;19.10;14.20;;;;;;;19.67;81.86;98080.56;4892806;29;20120;-85
2023/08/26 05:47:24;;;;;;;20.92;13.88;;;;;;;19.68;81.89;98080.28;4886820;29;20096;-84
2023/08/26 05:50:09;;;;;;;19.13;13.15;;;;;;;19.84;81.67;98074.84;4887606;29;20123;-82
2023/08/26 05:52:53;;;;;;;18.20;13.20;;;;;;;19.90;81.38;98095.00;4887123;29;20048;-83
2023/08/26 05:55:37;;;;;;;19.38;12.93;;;;;;;20.15;81.28;98089.78;4882334;29;20396;-84
2023/08/26 05:58:21;;;;;;;16.50;12.70;;;;;;;20.25;80.71;98095.03;4888722;29;20076;-83
2023/08/26 06:01:05;;;;;;;16.13;12.32;;;;;;;20.29;79.97;98088.06;4887847;29;20414;-83
2023/08/26 06:03:49;;;;;;;14.45;12.25;;;;;;;20.34;80.41;98103.16;4889772;29;20088;-83
2023/08/26 06:06:33;;;;;;;;;;;;;;;20.69;79.83;98107.34;4888439;29;20046;-83
2023/08/26 06:09:17;;;;;;;16.38;12.27;;;;;;;20.84;79.63;98102.94;4884752;29;20378;-82
2023/08/26 06:12:01;;;;;;;14.95;11.27;;;;;;;20.89;79.36;98102.06;4887533;29;20047;-82
2023/08/26 06:14:45;;;;;;;12.95;11.00;;;;;;;20.92;79.03;98102.31;4886023;29;20052;-81
2023/08/26 06:17:29;;;;;;;12.50;10.20;;;;;;;20.75;79.27;98102.75;4888385;29;20059;-82
2023/08/26 06:20:13;;;;;;;11.32;9.80;;;;;;;20.93;79.13;98095.09;4890009;29;20105;-82
2023/08/26 06:22:57;;;;;;;12.15;10.15;;;;;;;21.06;78.85;98091.72;4888762;29;20052;-82
2023/08/26 06:25:51;;;;;;;12.93;9.45;;;;;;;21.58;78.09;98092.88;4887178;29;20048;-82
2023/08/26 06:28:35;;;;;;;10.48;9.30;;;;;;;21.66;77.75;98087.69;4887086;29;20463;-83
2023/08/26 06:31:19;;;;;;;13.02;9.35;;;;;;;21.62;76.82;98091.22;4890129;29;20048;-83
2023/08/26 06:34:04;;;;;;;15.02;10.52;;;;;;;21.55;76.84;98091.59;4892218;29;20447;-82
2023/08/26 06:36:48;;;;;;;12.20;9.32;;;;;;;21.75;76.28;98087.03;4885079;29;20551;-82
2023/08/26 06:39:32;;;;;;;11.65;9.43;;;;;;;21.78;75.58;98092.56;4887684;29;20518;-82
2023/08/26 06:42:16;;;;;;;;;;;;;;;21.89;75.53;98093.19;4888505;29;20101;-84
2023/08/26 06:45:00;;;;;;;10.35;8.48;;;;;;;22.01;75.59;98092.75;4883126;29;19927;-84
2023/08/26 06:47:43;;;;;;;11.45;8.95;;;;;;;22.11;75.89;98094.47;4887763;29;20040;-84
2023/08/26 06:50:28;;;;;;;9.50;7.60;;;;;;;22.06;75.77;98094.53;4889481;29;20035;-84
2023/08/26 06:53:12;;;;;;;12.60;8.70;;;;;;;22.14;75.20;98090.41;4886002;29;20052;-83
2023/08/26 06:55:56;;;;;;;12.93;10.55;;;;;;;21.44;75.51;98082.94;4887623;29;20071;-83
2023/08/26 06:58:40;;;;;;;14.55;10.25;;;;;;;20.90;77.19;98082.31;4887514;29;20097;-85
2023/08/26 07:01:24;;;;;;;12.27;10.63;;;;;;;21.23;77.00;98085.91;4889072;29;20521;-85
2023/08/26 07:04:08;;;;;;;13.98;10.75;;;;;;;21.07;77.35;98087.97;4884403;29;20568;-85
2023/08/26 07:06:52;;;;;;;14.80;10.75;;;;;;;21.33;77.35;98089.50;4884025;29;21818;-85
2023/08/26 07:09:36;;;;;;;11.85;8.82;;;;;;;21.96;76.49;98084.81;4895930;29;20584;-85
2023/08/26 07:12:20;;;;;;;10.07;8.30;;;;;;;21.58;75.89;98087.53;4886472;29;20079;-84
2023/08/26 07:15:05;;;;;;;13.48;8.20;;;;;;;22.04;75.90;98091.38;4884926;29;20120;-86
2023/08/26 07:17:49;;;;;;;7.60;6.18;;;;;;;22.56;74.68;98090.47;4884746;29;20499;-83
2023/08/26 07:20:33;;;;;;;8.95;5.80;;;;;;;22.36;73.81;98092.41;4885166;29;20056;-83
2023/08/26 07:23:16;;;;;;;6.32;4.78;;;;;;;22.22;73.52;98097.75;4886337;29;20128;-84
2023/08/26 07:26:01;;;;;;;9.32;5.28;;;;;;;22.19;73.79;98101.78;4883970;29;20511;-84
2023/08/26 07:28:46;;;;;;;6.38;5.15;;;;;;;22.28;73.72;98101.09;4887028;29;20067;-85
2023/08/26 07:31:32;;;;;;;5.75;4.65;;;;;;;22.58;73.04;98099.00;4883567;29;20039;-86
2023/08/26 07:34:16;;;;;;;10.02;5.03;;;;;;;22.75;72.82;98103.72;4887475;29;20099;-83
2023/08/26 07:37:00;;;;;;;5.82;4.38;;;;;;;22.79;72.61;98107.38;4886415;29;20059;-83
2023/08/26 07:39:44;;;;;;;5.90;4.53;;;;;;;23.00;71.66;98107.00;4883392;29;20084;-85
2023/08/26 07:42:28;;;;;;;4.43;3.80;;;;;;;23.37;71.03;98110.50;4885947;29;20104;-83
2023/08/26 07:45:12;;;;;;;7.63;6.00;;;;;;;23.22;70.40;98115.09;4884062;29;20175;-84
2023/08/26 07:47:57;;;;;;;6.10;4.95;;;;;;;23.21;70.89;98121.53;4886749;29;20044;-83
2023/08/26 07:50:41;;;;;;;8.05;5.53;;;;;;;23.19;70.67;98123.72;4882977;29;20063;-82
2023/08/26 07:53:25;;;;;;;8.45;6.32;;;;;;;23.03;71.37;98130.47;4884930;29;20340;-83
2023/08/26 07:56:09;;;;;;;11.63;8.05;;;;;;;22.90;71.22;98126.72;4879249;29;20044;-84
2023/08/26 07:58:53;;;;;;;12.57;10.30;;;;;;;22.83;71.21;98138.59;4883516;29;20067;-87
2023/08/26 08:01:38;;;;;;;14.50;9.35;;;;;;;22.67;71.54;98135.44;4880489;29;20472;-83
2023/08/26 08:04:22;;;;;;;10.95;7.70;;;;;;;23.30;70.53;98139.56;4886008;29;20096;-85
2023/08/26 08:07:06;;;;;;;7.22;5.00;;;;;;;23.58;69.74;98134.13;4885461;29;20668;-83
2023/08/26 08:09:53;;;;;;;6.85;3.42;;;;;;;23.66;69.41;98133.41;4881702;29;20132;-84
2023/08/26 08:12:36;;;;;;;4.50;3.28;;;;;;;24.12;68.65;98130.75;4885926;29;20048;-84
2023/08/26 08:15:20;;;;;;;3.92;3.53;;;;;;;24.35;68.19;98118.88;4886421;29;20495;-83
2023/08/26 08:18:04;;;;;;;4.53;3.40;;;;;;;24.10;68.29;98123.81;4881781;29;20453;-84
2023/08/26 08:20:48;;;;;;;5.55;3.83;;;;;;;24.28;67.22;98131.16;4881720;29;20047;-85
2023/08/26 08:23:33;;;;;;;5.20;3.25;;;;;;;23.81;67.49;98138.44;4887309;29;20538;-83
2023/08/26 08:26:18;;;;;;;4.18;2.60;;;;;;;23.64;68.20;98132.94;4890200;29;20063;-84
2023/08/26 08:29:02;;;;;;;3.10;2.80;;;;;;;23.86;67.86;98142.84;4889062;29;20155;-85
2023/08/26 08:31:46;;;;;;;5.15;2.90;;;;;;;23.35;67.96;98142.13;4888824;29;20096;-83
2023/08/26 08:34:30;;;;;;;6.07;3.15;;;;;;;23.46;68.71;98135.47;4890992;29;20047;-83
2023/08/26 08:37:14;;;;;;;6.45;3.08;;;;;;;23.48;69.00;98135.97;4887509;29;20104;-83
2023/08/26 08:39:59;;;;;;;4.90;3.03;;;;;;;23.53;68.95;98141.19;4886419;29;20059;-83
2023/08/26 08:42:44;;;;;;;5.28;3.00;;;;;;;23.13;69.12;98140.97;4888079;29;20053;-83
2023/08/26 08:45:29;;;;;;;4.05;2.63;;;;;;;23.24;69.56;98147.69;4889428;29;20048;-83
2023/08/26 08:48:13;;;;;;;4.65;3.08;;;;;;;23.05;70.01;98142.44;4886854;29;20048;-84
2023/08/26 08:50:58;;;;;;;6.20;3.40;;;;;;;22.40;71.07;98142.34;4889776;29;20082;-84
2023/08/26 08:53:47;;;;;;;5.03;3.40;;;;;;;22.88;70.64;98151.09;4889294;29;20088;-84
2023/08/26 08:56:36;;;;;;;6.80;4.50;;;;;;;22.95;70.27;98156.06;4887095;29;20399;-83
2023/08/26 08:59:21;;;;;;;5.63;4.22;;;;;;;23.20;69.82;98162.78;4892299;29;20141;-83
2023/08/26 09:02:05;;;;;;;7.05;5.15;;;;;;;23.00;70.27;98168.53;4887421;29;20398;-83
2023/08/26 09:04:50;;;;;;;8.68;7.20;;;;;;;23.52;69.38;98163.72;4886529;29;20510;-84
2023/08/26 09:07:36;;;;;;;10.85;8.35;;;;;;;23.58;69.14;98160.91;4888021;29;20048;-83
2023/08/26 09:10:20;;;;;;;5.50;5.00;;;;;;;23.67;68.15;98162.56;4892086;29;20585;-82
2023/08/26 09:13:05;;;;;;;5.15;4.03;;;;;;;23.95;67.21;98170.50;4888914;29;20052;-83
2023/08/26 09:15:49;;;;;;;7.18;4.13;;;;;;;24.13;66.39;98159.94;4886104;29;20574;-83
2023/08/26 09:18:40;;;;;;;3.72;3.30;;;;;;;24.18;66.16;98161.72;4890632;29;20108;-84
2023/08/26 09:21:25;;;;;;;4.05;2.83;;;;;;;24.44;65.04;98163.72;4888760;29;20092;-84
2023/08/26 09:24:13;;;;;;;4.28;3.05;;;;;;;24.81;64.19;98165.19;4890537;29;20083;-84
2023/08/26 09:26:59;;;;;;;3.60;3.10;;;;;;;24.81;64.64;98169.75;4891343;29;20047;-83
2023/08/26 09:29:43;;;;;;;3.30;3.00;;;;;;;24.98;64.10;98173.63;4891178;29;20071;-84
2023/08/26 09:32:39;;;;;;;5.18;3.33;;;;;;;25.04;63.83;98170.44;4887829;29;20410;-84
2023/08/26 09:35:24;;;;;;;4.05;3.50;;;;;;;24.64;64.16;98170.44;4884249;29;20456;-84
2023/08/26 09:38:08;;;;;;;3.60;3.30;;;;;;;24.79;63.68;98175.44;4885362;29;20169;-83
2023/08/26 09:41:00;;;;;;;5.15;3.53;;;;;;;24.97;63.46;98170.13;4886626;29;20536;-83
2023/08/26 09:43:44;;;;;;;5.63;3.78;;;;;;;24.57;63.36;98173.59;4890979;29;20100;-87
2023/08/26 09:46:36;;;;;;;4.97;3.60;;;;;;;24.77;62.79;98169.59;4886844;29;20463;-83
2023/08/26 09:49:20;;;;;;;4.15;3.75;;;;;;;24.65;62.05;98164.78;4889836;29;20479;-84
2023/08/26 09:52:04;;;;;;;4.38;3.97;;;;;;;24.71;62.56;98173.50;4887444;29;20051;-85
2023/08/26 09:54:49;;;;;;;5.15;3.72;;;;;;;24.84;62.60;98177.19;4891874;29;20291;-83
2023/08/26 09:57:32;;;;;;;3.95;3.55;;;;;;;24.91;61.77;98185.56;4886983;29;20085;-83
2023/08/26 10:00:16;;;;;;;5.05;3.80;;;;;;;24.81;62.12;98183.19;4888460;29;20075;-83
2023/08/26 10:03:02;;;;;;;4.22;3.80;;;;;;;24.97;62.08;98182.78;4885783;29;20136;-86
2023/08/26 10:05:49;;;;;;;4.40;3.80;;;;;;;25.20;62.02;98180.75;4887221;29;20104;-82
2023/08/26 10:08:37;;;;;;;4.25;3.72;;;;;;;25.79;60.53;98183.06;4887359;29;20144;-83
2023/08/26 10:11:23;;;;;;;5.05;4.10;;;;;;;26.20;59.88;98188.25;4889158;29;20076;-83
2023/08/26 10:14:13;;;;;;;5.35;3.80;;;;;;;26.75;59.82;98183.19;4883856;29;20055;-84
2023/08/26 10:17:00;;;;;;;4.68;3.90;;;;;;;27.45;58.74;98187.44;4888351;29;20396;-82
2023/08/26 10:19:46;;;;;;;4.18;3.83;;;;;;;27.00;57.20;98186.88;4888804;29;20072;-82
2023/08/26 10:22:30;;;;;;;4.20;3.80;;;;;;;26.94;56.75;98194.38;4889038;29;20411;-84
2023/08/26 10:25:15;;;;;;;5.50;4.13;;;;;;;26.85;58.16;98188.22;4887858;29;20202;-84
2023/08/26 10:28:03;;;;;;;6.07;4.53;;;;;;;26.78;59.77;98198.69;4883753;29;20127;-82
2023/08/26 10:30:48;;;;;;;5.30;4.25;;;;;;;26.96;61.51;98193.25;4889278;29;20590;-83
2023/08/26 10:34:06;;;;;;;5.78;5.05;;;;;;;26.93;64.30;98203.56;4887064;29;20132;-82
2023/08/26 10:36:57;;;;;;;5.35;4.85;;;;;;;26.78;63.80;98193.31;4887227;29;20036;-82
2023/08/26 10:39:42;;;;;;;6.20;4.45;;;;;;;26.79;64.12;98200.28;4887362;29;20066;-83
2023/08/26 10:42:27;;;;;;;8.45;5.18;;;;;;;26.37;62.49;98192.81;4890381;29;20508;-85
2023/08/26 10:45:14;;;;;;;6.65;4.70;;;;;;;26.32;64.37;98204.53;4885425;29;20097;-83
2023/08/26 10:47:59;;;;;;;6.50;4.25;;;;;;;25.92;64.22;98196.63;4886240;29;20043;-83
2023/08/26 10:50:58;;;;;;;5.90;4.72;;;;;;;26.06;63.44;98199.94;4884812;29;20123;-83
2023/08/26 10:53:48;;;;;;;6.43;4.85;;;;;;;26.03;63.98;98203.28;4884881;29;20039;-83
2023/08/26 10:56:39;;;;;;;5.40;4.90;;;;;;;25.62;64.51;98199.19;4886001;29;20056;-84
2023/08/26 10:59:49;;;;;;;5.50;4.97;;;;;;;25.49;62.38;98201.69;4885498;29;20059;-82
2023/08/26 11:02:33;;;;;;;5.82;4.47;;;;;;;25.63;62.15;98206.13;4885310;29;20116;-86
2023/08/26 11:05:18;;;;;;;5.25;4.20;;;;;;;25.99;62.31;98202.34;4886156;29;20048;-84
2023/08/26 11:08:02;;;;;;;6.15;3.92;;;;;;;26.17;60.78;98202.34;4885853;29;20100;-83
2023/08/26 11:10:46;;;;;;;4.78;3.75;;;;;;;26.34;61.08;98209.59;4886132;29;20071;-84
2023/08/26 11:13:30;;;;;;;7.80;3.90;;;;;;;26.48;58.92;98207.50;4885479;29;20046;-83
2023/08/26 11:16:15;;;;;;;5.70;3.90;;;;;;;26.37;58.50;98206.25;4886244;29;20047;-83
2023/08/26 11:19:00;;;;;;;5.82;3.72;;;;;;;26.64;57.64;98202.38;4886129;29;20168;-83
2023/08/26 11:21:44;;;;;;;4.20;3.80;;;;;;;26.96;57.58;98204.03;4883422;29;20043;-83
2023/08/26 11:24:29;;;;;;;4.38;3.90;;;;;;;27.93;55.94;98201.50;4884046;29;20128;-83
2023/08/26 11:27:13;;;;;;;5.22;4.47;;;;;;;28.96;58.58;98203.78;4882056;29;20410;-85
2023/08/26 11:29:57;;;;;;;6.68;3.80;;;;;;;29.01;57.22;98192.75;4883676;29;20404;-84
2023/08/26 11:32:41;;;;;;;4.13;3.72;;;;;;;29.27;55.42;98188.88;4886060;29;20111;-84
2023/08/26 11:35:26;;;;;;;6.20;4.53;;;;;;;29.09;55.10;98194.56;4885736;29;20047;-83
2023/08/26 11:38:11;;;;;;;7.18;5.93;;;;;;;28.44;58.32;98193.25;4884497;29;20091;-83
2023/08/26 11:40:55;;;;;;;7.43;5.93;;;;;;;27.97;59.35;98199.72;4886823;29;20048;-82
2023/08/26 11:43:39;;;;;;;8.38;5.80;;;;;;;27.47;58.81;98207.53;4887611;29;20083;-84
2023/08/26 11:46:23;;;;;;;6.55;5.25;;;;;;;27.04;59.17;98200.50;4885545;29;20044;-83
2023/08/26 11:49:10;;;;;;;15.68;7.50;;;;;;;25.85;75.37;98217.84;4886031;29;20132;-83
2023/08/26 11:51:54;;;;;;;19.33;8.38;;;;;;;24.77;79.95;98209.06;4885899;29;20124;-83
2023/08/26 11:54:38;;;;;;;9.25;6.78;;;;;;;24.86;80.52;98206.38;4886830;29;20067;-84
2023/08/26 11:57:23;;;;;;;9.30;6.70;;;;;;;24.78;82.21;98198.00;4886076;29;20047;-83
2023/08/26 12:00:13;;;;;;;11.02;6.40;;;;;;;25.06;83.96;98202.38;4885434;29;20055;-83
2023/08/26 12:03:02;;;;;;;7.53;6.57;;;;;;;25.21;85.61;98204.63;4887644;29;20084;-83
2023/08/26 12:05:49;;;;;;;7.13;6.32;;;;;;;25.21;86.64;98199.25;4887130;29;20172;-83
2023/08/26 12:08:34;;;;;;;12.20;6.25;;;;;;;25.37;85.36;98204.19;4886908;29;20055;-84
2023/08/26 12:11:19;;;;;;;8.02;6.00;;;;;;;25.63;86.99;98206.91;4884428;29;20043;-83
2023/08/26 12:14:20;;;;;;;7.35;5.88;;;;;;;25.58;88.12;98208.97;4884157;29;20205;-82
2023/08/26 12:17:04;;;;;;;6.78;5.72;;;;;;;25.89;86.47;98208.84;4887903;29;20140;-84
2023/08/26 12:19:48;;;;;;;8.73;5.72;;;;;;;25.65;80.88;98217.34;4889387;29;20047;-84
2023/08/26 12:22:32;;;;;;;6.78;5.60;;;;;;;25.76;86.33;98209.78;4880822;29;20163;-87
2023/08/26 12:25:18;;;;;;;8.43;6.40;;;;;;;26.24;86.54;98210.72;4884036;29;20075;-85
2023/08/26 12:28:10;;;;;;;6.53;5.93;;;;;;;26.52;85.58;98207.63;4884121;29;20052;-88
2023/08/26 12:30:54;;;;;;;10.10;6.72;;;;;;;26.41;84.55;98217.19;4884131;29;20100;-85
2023/08/26 12:33:38;;;;;;;9.40;5.93;;;;;;;26.10;82.80;98208.97;4883236;29;20052;-88
2023/08/26 12:36:22;;;;;;;10.60;6.78;;;;;;;25.97;82.96;98218.00;4887844;29;20403;-90
2023/08/26 12:39:07;;;;;;;7.25;5.90;;;;;;;25.17;79.18;98218.97;4884063;29;20506;-89
2023/08/26 12:41:56;;;;;;;;;;;;;;;25.32;82.09;98228.50;4891903;29;20044;-87
2023/08/26 12:44:40;;;;;;;8.25;5.82;;;;;;;25.05;82.22;98235.69;4886089;29;20334;-86
2023/08/26 12:47:24;;;;;;;7.85;5.85;;;;;;;24.93;81.60;98234.38;4886517;29;20052;-87
2023/08/26 12:50:08;;;;;;;7.80;5.70;;;;;;;25.03;82.47;98235.97;4883660;29;20048;-87
2023/08/26 12:52:53;;;;;;;8.43;6.20;;;;;;;25.07;82.83;98233.47;4882659;29;20047;-85